Lake Arthur, New Mexico
Current Conditions -  °F | °C
As of 3:51 AM on Friday 31 Oct 2014 (Local Time) from KROW Reporting Station
Clear Clear  
Wind Chill:   Ceiling: Unl
Heat Index:   Visibility: 10mi
Dew Point:   Wind: 5mph
Humidity: 61%   Direction: 290°WNW
Pressure: 30.37"   Gusts: NA
Location:  33°N, 104.37°W
Report Text: KROW 310951Z AUTO 29004KT 10SM CLR 08/01 A3037 RMK AO2 SLP239 T00780006
Loading
Personal Weather Stations






























Interactive Weather Map
Tropical Storm Tracking
New forecast layout! Learn more

10-Day Weather Forecast

Advertisements
Track Severe Weather on mobile